createdAt,value
2023-01-30T00:01:51.539Z,39.21
2023-01-30T00:04:21.098Z,39.12
2023-01-30T00:06:49.168Z,39.18
2023-01-30T00:09:17.420Z,39.10
2023-01-30T00:11:45.507Z,39.17
2023-01-30T00:14:13.599Z,39.04
2023-01-30T00:16:42.888Z,39.24
2023-01-30T00:19:11.250Z,39.11
2023-01-30T00:21:40.796Z,39.17
2023-01-30T00:24:09.554Z,39.19
2023-01-30T00:26:37.913Z,39.23
2023-01-30T00:29:06.050Z,39.13
2023-01-30T00:31:34.137Z,39.31
2023-01-30T00:34:02.248Z,39.21
2023-01-30T00:36:30.414Z,39.02
2023-01-30T00:39:00.174Z,39.02
2023-01-30T00:41:48.400Z,39.03
2023-01-30T00:44:34.151Z,39.16
2023-01-30T00:47:09.063Z,39.15
2023-01-30T00:49:38.035Z,39.08
2023-01-30T00:52:07.221Z,39.19
2023-01-30T00:54:36.668Z,39.07
2023-01-30T00:57:04.936Z,39.25
2023-01-30T00:59:33.064Z,38.85
2023-01-30T01:02:01.255Z,39.03
2023-01-30T01:04:29.332Z,39.03
2023-01-30T01:06:57.372Z,39.19
2023-01-30T01:09:25.372Z,39.20
2023-01-30T01:11:54.804Z,39.20
2023-01-30T01:14:22.900Z,39.13
2023-01-30T01:16:51.100Z,39.10
2023-01-30T01:19:19.223Z,39.09
2023-01-30T01:21:47.330Z,39.16
2023-01-30T01:24:16.459Z,39.16
2023-01-30T01:26:45.577Z,39.22
2023-01-30T01:29:16.424Z,39.13
2023-01-30T01:31:45.115Z,39.15
2023-01-30T01:34:13.450Z,39.11
2023-01-30T01:36:53.343Z,39.09
2023-01-30T01:39:22.476Z,39.10
2023-01-30T01:41:49.656Z,38.86
2023-01-30T01:44:19.192Z,39.17
2023-01-30T01:46:51.673Z,39.15
2023-01-30T01:49:25.226Z,39.02
2023-01-30T01:51:57.738Z,39.16
2023-01-30T01:54:34.350Z,39.12
2023-01-30T01:57:05.976Z,39.07
2023-01-30T01:59:39.176Z,39.03
2023-01-30T02:02:10.920Z,39.06
2023-01-30T02:05:01.319Z,39.12
2023-01-30T02:07:34.993Z,39.27
2023-01-30T02:10:03.694Z,39.08
2023-01-30T02:12:32.413Z,39.25
2023-01-30T02:15:02.933Z,39.10
2023-01-30T02:17:31.169Z,39.15
2023-01-30T02:20:04.916Z,38.98
2023-01-30T02:23:03.922Z,39.12
2023-01-30T02:26:02.062Z,39.21
2023-01-30T02:29:08.760Z,39.20
2023-01-30T02:31:44.902Z,39.00
2023-01-30T02:34:30.045Z,39.13
2023-01-30T02:37:07.895Z,39.10
2023-01-30T02:39:46.160Z,39.09
2023-01-30T02:42:26.557Z,38.98
2023-01-30T02:45:02.739Z,39.14
2023-01-30T02:47:39.125Z,39.19
2023-01-30T02:50:14.537Z,38.93
2023-01-30T02:52:43.723Z,38.98
2023-01-30T02:55:20.237Z,39.04
2023-01-30T02:57:48.690Z,38.96
2023-01-30T03:00:22.566Z,39.03
2023-01-30T03:03:16.024Z,39.00
2023-01-30T03:06:13.620Z,39.12
2023-01-30T03:08:54.492Z,39.09
2023-01-30T03:11:27.618Z,38.97
2023-01-30T03:13:59.742Z,39.02
2023-01-30T03:16:34.400Z,39.03
2023-01-30T03:19:04.432Z,38.97
2023-01-30T03:21:32.489Z,39.04
2023-01-30T03:24:00.693Z,38.90
2023-01-30T03:26:34.329Z,38.96
2023-01-30T03:29:03.490Z,39.02
2023-01-30T03:31:31.681Z,38.97
2023-01-30T03:33:59.940Z,39.04
2023-01-30T03:36:29.468Z,38.97
2023-01-30T03:38:57.529Z,39.05
2023-01-30T03:41:25.805Z,39.00
2023-01-30T03:43:53.852Z,38.94
2023-01-30T03:46:21.866Z,38.92
2023-01-30T03:48:49.900Z,38.98
2023-01-30T03:51:17.957Z,39.00
2023-01-30T03:53:47.354Z,38.96
2023-01-30T03:56:15.478Z,38.93
2023-01-30T03:58:43.468Z,38.93
2023-01-30T04:01:11.705Z,39.03
2023-01-30T04:03:40.110Z,38.90
2023-01-30T04:06:08.611Z,38.93
2023-01-30T04:08:36.746Z,38.91
2023-01-30T04:11:06.532Z,38.82
2023-01-30T04:13:34.574Z,38.92
2023-01-30T04:16:20.139Z,38.90
2023-01-30T04:18:48.239Z,38.88
2023-01-30T04:21:17.209Z,38.85
2023-01-30T04:23:45.656Z,38.82
2023-01-30T04:26:15.746Z,38.91
2023-01-30T04:28:44.743Z,38.93
2023-01-30T04:31:13.256Z,38.87
2023-01-30T04:33:41.666Z,38.92
2023-01-30T04:36:11.478Z,38.98
2023-01-30T04:38:39.929Z,38.79
2023-01-30T04:41:08.093Z,38.88
2023-01-30T04:43:37.625Z,38.70
2023-01-30T04:46:06.068Z,38.93
2023-01-30T04:48:34.222Z,38.90
2023-01-30T04:51:02.371Z,38.80
2023-01-30T04:53:30.443Z,38.85
2023-01-30T04:55:58.534Z,38.80
2023-01-30T04:58:26.670Z,38.94
2023-01-30T05:00:56.192Z,38.72
2023-01-30T05:03:24.355Z,38.68
2023-01-30T05:05:52.411Z,38.77
2023-01-30T05:08:20.491Z,38.80
2023-01-30T05:10:48.533Z,38.85
2023-01-30T05:13:16.622Z,38.86
2023-01-30T05:15:46.557Z,38.72
2023-01-30T05:18:16.122Z,38.81
2023-01-30T05:20:44.436Z,38.79
2023-01-30T05:23:12.523Z,38.86
2023-01-30T05:25:40.873Z,38.83
2023-01-30T05:28:10.073Z,38.76
2023-01-30T05:30:38.573Z,38.78
2023-01-30T05:33:06.673Z,38.77
2023-01-30T05:35:36.163Z,38.90
2023-01-30T05:38:04.246Z,38.87
2023-01-30T05:40:32.445Z,38.83
2023-01-30T05:43:00.688Z,38.83
2023-01-30T05:45:28.856Z,38.86
2023-01-30T05:48:01.284Z,38.98
2023-01-30T05:50:30.005Z,38.60
2023-01-30T05:52:59.549Z,38.59
2023-01-30T05:55:27.629Z,38.76
2023-01-30T05:57:55.664Z,38.80
2023-01-30T06:00:24.019Z,38.98
2023-01-30T06:02:52.116Z,38.71
2023-01-30T06:05:20.436Z,38.85
2023-01-30T06:07:48.620Z,38.76
2023-01-30T06:10:18.955Z,38.90
2023-01-30T06:12:47.077Z,38.95
2023-01-30T06:15:15.571Z,38.81
2023-01-30T06:17:44.159Z,38.76
2023-01-30T06:20:13.365Z,38.67
2023-01-30T06:22:41.460Z,38.78
2023-01-30T06:25:10.283Z,38.82
2023-01-30T06:27:39.802Z,38.76
2023-01-30T06:30:09.303Z,38.70
2023-01-30T06:32:37.404Z,38.83
2023-01-30T06:35:06.565Z,38.83
2023-01-30T06:37:34.638Z,38.92
2023-01-30T06:40:02.840Z,38.80
2023-01-30T06:42:30.878Z,38.63
2023-01-30T06:45:00.355Z,38.69
2023-01-30T06:47:28.445Z,38.84
2023-01-30T06:49:56.499Z,38.73
2023-01-30T06:52:24.526Z,38.84
2023-01-30T06:54:52.708Z,38.66
2023-01-30T06:57:20.708Z,38.83
2023-01-30T06:59:48.725Z,38.76
2023-01-30T07:02:18.637Z,38.70
2023-01-30T07:04:46.653Z,38.79
2023-01-30T07:07:14.762Z,38.83
2023-01-30T07:09:42.782Z,38.78
2023-01-30T07:12:10.852Z,38.80
2023-01-30T07:14:38.837Z,38.74
2023-01-30T07:17:06.886Z,38.77
2023-01-30T07:19:36.349Z,38.68
2023-01-30T07:22:04.359Z,38.63
2023-01-30T07:24:32.580Z,38.66
2023-01-30T07:27:00.595Z,38.77
2023-01-30T07:29:28.664Z,38.75
2023-01-30T07:31:56.933Z,38.79
2023-01-30T07:34:25.006Z,38.70
2023-01-30T07:36:54.447Z,38.67
2023-01-30T07:39:22.534Z,38.68
2023-01-30T07:41:50.552Z,38.81
2023-01-30T07:44:18.998Z,38.74
2023-01-30T07:46:47.057Z,38.65
2023-01-30T07:49:15.259Z,38.74
2023-01-30T07:51:43.316Z,38.74
2023-01-30T07:54:12.967Z,38.64
2023-01-30T07:56:41.527Z,38.70
2023-01-30T07:59:11.859Z,38.64
2023-01-30T08:01:40.685Z,38.57
2023-01-30T08:04:08.690Z,38.55
2023-01-30T08:06:39.393Z,38.70
2023-01-30T08:09:08.475Z,38.66
2023-01-30T08:11:38.123Z,38.69
2023-01-30T08:14:06.163Z,38.59
2023-01-30T08:16:34.273Z,38.65
2023-01-30T08:19:02.331Z,38.59
2023-01-30T08:21:30.393Z,38.74
2023-01-30T08:24:00.284Z,38.67
2023-01-30T08:26:29.337Z,38.65
2023-01-30T08:28:58.937Z,38.64
2023-01-30T08:31:27.054Z,38.71
2023-01-30T08:33:55.133Z,38.56
2023-01-30T08:36:23.123Z,38.54
2023-01-30T08:38:51.418Z,38.55
2023-01-30T08:41:19.455Z,38.67
2023-01-30T08:43:47.569Z,38.50
2023-01-30T08:46:17.774Z,38.56
2023-01-30T08:48:49.981Z,38.70
2023-01-30T08:51:19.186Z,38.54
2023-01-30T08:53:47.351Z,38.61
2023-01-30T08:56:15.371Z,38.61
2023-01-30T08:58:45.811Z,38.62
2023-01-30T09:01:14.307Z,38.68
2023-01-30T09:03:43.959Z,38.61
2023-01-30T09:06:12.088Z,38.48
2023-01-30T09:08:40.108Z,38.65
2023-01-30T09:11:09.515Z,38.68
2023-01-30T09:13:38.853Z,38.60
2023-01-30T09:16:08.315Z,38.51
2023-01-30T09:18:39.792Z,38.50
2023-01-30T09:21:10.379Z,38.54
2023-01-30T09:23:38.959Z,38.64
2023-01-30T09:26:07.616Z,38.58
2023-01-30T09:28:36.352Z,38.67
2023-01-30T09:31:04.849Z,38.67
2023-01-30T09:33:33.089Z,38.54
2023-01-30T09:36:01.269Z,38.63
2023-01-30T09:38:30.777Z,38.64
2023-01-30T09:41:14.940Z,38.64
2023-01-30T09:44:07.288Z,38.55
2023-01-30T09:46:46.947Z,38.64
2023-01-30T09:49:29.008Z,38.42
2023-01-30T09:52:09.663Z,38.56
2023-01-30T09:54:42.357Z,38.59
2023-01-30T09:57:21.326Z,38.51
2023-01-30T09:59:59.483Z,38.52
2023-01-30T10:02:38.489Z,38.69
2023-01-30T10:05:07.409Z,38.56
2023-01-30T10:08:01.367Z,38.56
2023-01-30T10:10:48.308Z,38.51
2023-01-30T10:13:32.761Z,38.52
2023-01-30T10:16:09.645Z,38.64
2023-01-30T10:18:51.940Z,38.56
2023-01-30T10:21:31.490Z,38.63
2023-01-30T10:24:14.232Z,38.50
2023-01-30T10:26:44.706Z,38.50
2023-01-30T10:29:17.625Z,38.63
2023-01-30T10:31:51.553Z,38.54
2023-01-30T10:34:23.820Z,38.55
2023-01-30T10:36:55.768Z,38.64
2023-01-30T10:39:32.598Z,38.60
2023-01-30T10:42:11.908Z,38.53
2023-01-30T10:44:41.353Z,38.61
2023-01-30T10:47:46.797Z,38.59
2023-01-30T10:50:18.696Z,38.63
2023-01-30T10:52:55.974Z,38.57
2023-01-30T10:55:37.576Z,38.48
2023-01-30T10:58:18.526Z,38.52
2023-01-30T11:00:53.477Z,38.45
2023-01-30T11:03:34.224Z,38.49
2023-01-30T11:06:04.917Z,38.51
2023-01-30T11:08:35.049Z,38.57
2023-01-30T11:11:24.448Z,38.46
2023-01-30T11:14:02.744Z,38.54
2023-01-30T11:16:32.673Z,38.48
2023-01-30T11:19:22.386Z,38.53
2023-01-30T11:21:52.677Z,38.47
2023-01-30T11:24:23.910Z,38.45
2023-01-30T11:26:53.161Z,38.47
2023-01-30T11:29:35.187Z,38.42
2023-01-30T11:32:05.295Z,38.51
2023-01-30T11:34:33.391Z,38.45
2023-01-30T11:37:15.386Z,38.53
2023-01-30T11:39:49.828Z,38.50
2023-01-30T11:42:21.237Z,38.49
2023-01-30T11:45:10.840Z,38.57
2023-01-30T11:47:57.864Z,38.44
2023-01-30T11:50:36.401Z,38.41
2023-01-30T11:53:22.562Z,38.50
2023-01-30T11:56:02.913Z,38.48
2023-01-30T11:58:34.664Z,38.53
2023-01-30T12:01:05.409Z,38.47
2023-01-30T12:03:34.608Z,38.33
2023-01-30T12:06:03.799Z,38.54
2023-01-30T12:08:42.725Z,38.51
2023-01-30T12:11:27.346Z,38.59
2023-01-30T12:13:58.603Z,38.49
2023-01-30T12:16:39.893Z,38.63
2023-01-30T12:19:21.664Z,38.47
2023-01-30T12:21:57.344Z,38.50
2023-01-30T12:24:32.387Z,38.50
2023-01-30T12:27:04.421Z,38.53
2023-01-30T12:29:36.922Z,38.35
2023-01-30T12:32:12.666Z,38.54
2023-01-30T12:34:41.069Z,38.43
2023-01-30T12:37:26.489Z,38.44
2023-01-30T12:40:05.236Z,38.49
2023-01-30T12:43:11.588Z,38.36
2023-01-30T12:45:49.234Z,38.35
2023-01-30T12:48:44.150Z,38.46
2023-01-30T12:51:30.480Z,38.47
2023-01-30T12:54:08.771Z,38.50
2023-01-30T12:56:53.758Z,38.53
2023-01-30T12:59:29.665Z,38.28
2023-01-30T13:02:18.507Z,38.53
2023-01-30T13:05:04.757Z,38.47
2023-01-30T13:07:44.189Z,38.53
2023-01-30T13:10:20.327Z,38.38
2023-01-30T13:12:56.409Z,38.39
2023-01-30T13:15:31.421Z,38.52
2023-01-30T13:18:14.753Z,38.41
2023-01-30T13:20:54.138Z,38.46
2023-01-30T13:23:28.555Z,38.45
2023-01-30T13:26:05.916Z,38.36
2023-01-30T13:28:38.054Z,38.45
2023-01-30T13:31:09.549Z,38.47
2023-01-30T13:33:43.015Z,38.42
2023-01-30T13:36:17.970Z,38.47
2023-01-30T13:38:57.608Z,38.42
2023-01-30T13:41:29.314Z,38.40
2023-01-30T13:43:59.165Z,38.38
2023-01-30T13:46:30.640Z,38.38
2023-01-30T13:49:12.606Z,38.40
2023-01-30T13:51:48.847Z,38.29
2023-01-30T13:54:44.543Z,38.24
2023-01-30T13:57:22.384Z,38.38
2023-01-30T14:00:18.041Z,38.28
2023-01-30T14:03:24.141Z,38.24
2023-01-30T14:06:37.669Z,38.23
2023-01-30T14:09:22.121Z,38.29
2023-01-30T14:11:57.752Z,38.43
2023-01-30T14:14:31.996Z,38.34
2023-01-30T14:17:12.546Z,38.27
2023-01-30T14:20:17.184Z,38.24
2023-01-30T14:22:53.435Z,38.31
2023-01-30T14:25:46.547Z,38.28
2023-01-30T14:28:45.375Z,38.21
2023-01-30T14:31:14.867Z,38.44
2023-01-30T14:33:51.723Z,38.29
2023-01-30T14:36:37.324Z,38.13
2023-01-30T14:39:40.175Z,38.20
2023-01-30T14:42:23.008Z,38.21
2023-01-30T14:45:06.047Z,38.17
2023-01-30T14:47:45.408Z,38.18
2023-01-30T14:50:22.141Z,38.30
2023-01-30T14:52:51.506Z,38.26
2023-01-30T14:55:23.375Z,38.35
2023-01-30T14:57:59.056Z,38.23
2023-01-30T15:00:32.354Z,38.19
2023-01-30T15:03:03.215Z,38.27
2023-01-30T15:05:35.449Z,38.15
2023-01-30T15:08:11.260Z,38.22
2023-01-30T15:11:03.799Z,38.04
2023-01-30T15:13:45.443Z,38.25
2023-01-30T15:16:48.788Z,37.97
2023-01-30T15:19:31.922Z,38.05
2023-01-30T15:22:13.417Z,38.02
2023-01-30T15:25:27.053Z,37.90
2023-01-30T15:28:15.935Z,38.11
2023-01-30T15:30:58.537Z,37.91
2023-01-30T15:33:31.707Z,38.04
2023-01-30T15:36:00.218Z,38.07
2023-01-30T15:38:31.099Z,38.00
2023-01-30T15:41:02.203Z,38.11
2023-01-30T15:43:50.985Z,37.92
2023-01-30T15:46:26.447Z,38.03
2023-01-30T15:49:12.228Z,37.93
2023-01-30T15:51:40.435Z,38.06
2023-01-30T15:54:12.413Z,38.04
2023-01-30T15:56:41.947Z,38.01
2023-01-30T15:59:24.446Z,37.93
2023-01-30T16:02:02.514Z,37.89
2023-01-30T16:04:30.729Z,38.07
2023-01-30T16:06:58.968Z,37.98
2023-01-30T16:09:27.594Z,38.02
2023-01-30T16:11:56.263Z,38.04
2023-01-30T16:14:24.491Z,38.04
2023-01-30T16:16:55.484Z,37.99
2023-01-30T16:19:29.797Z,37.80
2023-01-30T16:22:02.070Z,37.83
2023-01-30T16:24:32.844Z,37.89
2023-01-30T16:27:03.845Z,37.87
2023-01-30T16:29:34.844Z,37.98
2023-01-30T16:32:03.413Z,37.91
2023-01-30T16:34:35.866Z,37.88
2023-01-30T16:37:07.838Z,37.96
2023-01-30T16:39:38.289Z,38.02
2023-01-30T16:42:23.459Z,37.63
2023-01-30T16:44:51.602Z,37.93
2023-01-30T16:47:26.258Z,37.82
2023-01-30T16:49:58.038Z,37.85
2023-01-30T16:52:38.240Z,37.65
2023-01-30T16:55:09.405Z,37.90
2023-01-30T16:57:43.313Z,37.85
2023-01-30T17:00:25.033Z,37.55
2023-01-30T17:02:56.746Z,37.76
2023-01-30T17:05:28.623Z,37.80
2023-01-30T17:07:58.476Z,37.78
2023-01-30T17:11:02.995Z,37.55
2023-01-30T17:13:36.653Z,37.71
2023-01-30T17:16:35.375Z,37.69
2023-01-30T17:19:03.742Z,37.61
2023-01-30T17:21:43.188Z,37.71
2023-01-30T17:24:15.458Z,37.67
2023-01-30T17:26:43.924Z,37.72
2023-01-30T17:29:23.650Z,37.67
2023-01-30T17:32:02.431Z,37.77
2023-01-30T17:34:30.497Z,37.72
2023-01-30T17:37:00.001Z,37.60
2023-01-30T17:39:29.099Z,37.67
2023-01-30T17:41:57.101Z,37.57
2023-01-30T17:44:26.741Z,37.79
2023-01-30T17:46:54.833Z,37.61
2023-01-30T17:49:24.891Z,37.80
2023-01-30T17:51:53.964Z,37.65
2023-01-30T17:54:24.995Z,37.72
2023-01-30T17:56:55.945Z,37.61
2023-01-30T17:59:24.216Z,37.66
2023-01-30T18:01:53.500Z,37.52
2023-01-30T18:04:22.123Z,37.55
2023-01-30T18:06:56.345Z,37.60
2023-01-30T18:09:27.031Z,37.65
2023-01-30T18:11:55.222Z,37.56
2023-01-30T18:14:23.822Z,37.50
2023-01-30T18:16:52.170Z,37.56
2023-01-30T18:19:24.273Z,37.62
2023-01-30T18:21:52.931Z,37.67
2023-01-30T18:24:21.332Z,37.69
2023-01-30T18:26:50.947Z,37.48
2023-01-30T18:29:19.387Z,37.59
2023-01-30T18:31:48.945Z,37.51
2023-01-30T18:34:17.089Z,37.48
2023-01-30T18:36:45.097Z,37.46
2023-01-30T18:39:13.467Z,37.53
2023-01-30T18:41:41.768Z,37.51
2023-01-30T18:44:13.138Z,37.43
2023-01-30T18:46:41.238Z,37.42
2023-01-30T18:49:09.435Z,37.48
2023-01-30T18:51:37.465Z,37.45
2023-01-30T18:54:05.892Z,37.46
2023-01-30T18:56:35.465Z,37.43
2023-01-30T18:59:05.336Z,37.46
2023-01-30T19:01:37.646Z,37.37
2023-01-30T19:04:08.405Z,37.34
2023-01-30T19:06:38.059Z,37.43
2023-01-30T19:09:06.975Z,37.41
2023-01-30T19:11:52.718Z,37.45
2023-01-30T19:14:21.062Z,37.37
2023-01-30T19:16:51.346Z,37.56
2023-01-30T19:19:19.956Z,37.25
2023-01-30T19:21:48.584Z,37.40
2023-01-30T19:24:17.738Z,37.11
2023-01-30T19:26:46.261Z,37.42
2023-01-30T19:29:14.298Z,37.41
2023-01-30T19:31:42.727Z,37.35
2023-01-30T19:34:13.106Z,37.25
2023-01-30T19:36:41.555Z,37.23
2023-01-30T19:39:11.623Z,37.29
2023-01-30T19:41:39.675Z,37.23
2023-01-30T19:44:09.196Z,37.17
2023-01-30T19:46:37.699Z,37.26
2023-01-30T19:49:06.137Z,37.41
2023-01-30T19:51:36.747Z,37.24
2023-01-30T19:54:06.504Z,37.31
2023-01-30T19:56:36.710Z,37.05
2023-01-30T19:59:05.088Z,37.30
2023-01-30T20:01:37.116Z,37.17
2023-01-30T20:04:05.499Z,37.37
2023-01-30T20:06:36.308Z,37.15
2023-01-30T20:09:05.997Z,37.18
2023-01-30T20:11:34.918Z,37.24
2023-01-30T20:14:05.328Z,37.04
2023-01-30T20:16:34.836Z,37.29
2023-01-30T20:19:05.546Z,37.27
2023-01-30T20:21:33.663Z,37.27
2023-01-30T20:24:03.328Z,37.20
2023-01-30T20:26:34.940Z,37.27
2023-01-30T20:29:03.493Z,37.04
2023-01-30T20:31:32.923Z,37.06
2023-01-30T20:34:03.159Z,37.21
2023-01-30T20:36:31.176Z,37.12
2023-01-30T20:39:04.496Z,37.15
2023-01-30T20:41:35.744Z,37.19
2023-01-30T20:44:04.997Z,37.13
2023-01-30T20:46:38.939Z,37.07
2023-01-30T20:49:06.961Z,37.07
2023-01-30T20:51:36.079Z,37.17
2023-01-30T20:54:07.799Z,37.07
2023-01-30T20:56:37.504Z,36.95
2023-01-30T20:59:07.598Z,37.12
2023-01-30T21:01:36.272Z,36.82
2023-01-30T21:04:07.659Z,37.06
2023-01-30T21:06:44.197Z,37.06
2023-01-30T21:09:17.351Z,37.09
2023-01-30T21:11:46.255Z,37.03
2023-01-30T21:14:14.607Z,37.01
2023-01-30T21:16:43.179Z,37.03
2023-01-30T21:19:14.331Z,37.01
2023-01-30T21:21:44.353Z,37.07
2023-01-30T21:24:15.757Z,36.91
2023-01-30T21:26:46.679Z,36.97
2023-01-30T21:29:16.193Z,37.05
2023-01-30T21:31:45.328Z,37.04
2023-01-30T21:34:14.167Z,36.97
2023-01-30T21:36:42.355Z,37.02
2023-01-30T21:39:33.670Z,36.95
2023-01-30T21:42:20.632Z,37.08
2023-01-30T21:44:49.348Z,36.85
2023-01-30T21:47:17.358Z,36.94
2023-01-30T21:49:45.627Z,36.83
2023-01-30T21:52:13.755Z,36.87
2023-01-30T21:54:43.200Z,36.93
2023-01-30T21:57:11.219Z,36.91
2023-01-30T21:59:39.351Z,36.96
2023-01-30T22:02:07.608Z,36.89
2023-01-30T22:04:36.631Z,36.85
2023-01-30T22:07:06.787Z,36.90
2023-01-30T22:09:35.169Z,36.89
2023-01-30T22:12:04.823Z,36.89
2023-01-30T22:14:35.310Z,36.95
2023-01-30T22:17:03.567Z,36.85
2023-01-30T22:19:35.803Z,36.86
2023-01-30T22:22:04.943Z,36.76
2023-01-30T22:24:33.001Z,36.73
2023-01-30T22:27:01.100Z,36.77
2023-01-30T22:29:30.627Z,36.82
2023-01-30T22:31:58.713Z,36.84
2023-01-30T22:34:26.889Z,36.79
2023-01-30T22:36:55.517Z,36.72
2023-01-30T22:39:23.572Z,36.73
2023-01-30T22:41:51.958Z,36.76
2023-01-30T22:44:20.053Z,36.75
2023-01-30T22:46:52.090Z,36.83
2023-01-30T22:49:20.213Z,36.70
2023-01-30T22:51:48.216Z,36.78
2023-01-30T22:54:17.002Z,36.77
2023-01-30T22:56:46.298Z,36.71
2023-01-30T22:59:15.030Z,36.72
2023-01-30T23:01:44.884Z,36.73
2023-01-30T23:04:16.172Z,36.64
2023-01-30T23:06:44.858Z,36.64
2023-01-30T23:09:16.468Z,36.57
2023-01-30T23:12:08.903Z,36.56
2023-01-30T23:14:37.126Z,36.50
2023-01-30T23:17:26.567Z,36.79
2023-01-30T23:19:55.595Z,36.64
2023-01-30T23:22:23.792Z,36.64
2023-01-30T23:24:52.178Z,36.60
2023-01-30T23:27:20.757Z,36.55
2023-01-30T23:29:48.838Z,36.57
2023-01-30T23:32:20.029Z,36.63
2023-01-30T23:34:48.204Z,36.63
2023-01-30T23:37:17.964Z,36.57
2023-01-30T23:39:46.704Z,36.60
2023-01-30T23:42:15.005Z,36.51
2023-01-30T23:44:43.129Z,36.66
2023-01-30T23:47:11.306Z,36.65
2023-01-30T23:49:39.881Z,36.52
2023-01-30T23:52:08.057Z,36.51
2023-01-30T23:54:37.608Z,36.55
2023-01-30T23:57:05.819Z,36.44
2023-01-30T23:59:34.095Z,36.50
